Budapest, Hungary

12:57 PM CEST on July 06, 2015 (GMT +0200)
IBUDAPES29 | | Change Station
CLOSE
Current Station
Personal Weather Station
Location: Budapest, XXIII., Soroksari Tenisztanoda
Elevation: 371 ft
Nearby Weather Stations

Elev 371 ft 47.41 °N, 19.11 °E | Updated 2 days ago

Clear
Clear
90 °F
Feels Like 87 °F
N
6
Wind Variable Wind from SW
Gusts mph

4:53 AM 8:42 PM
Waning Gibbous, 76% visible
Pressure 30.04 in
Visibility -9999.0 miles
Clouds
Heat Index 87 °F
Dew Point 53 °F
Humidity 29%
Rainfall in
Snow Depth Not available.
UV Not available.
Pollen Not available.
Air Quality Not available.
Flu Activity Not available.
METAR LHBP 061030Z 22010KT 180V260 CAVOK 32/12 Q1017 NOSIG

More Conditions Fewer Conditions

Pressure 30.04 in
Visibility -9999.0 miles
Clouds
Heat Index 87 °F
Dew Point 53 °F
Humidity 29%
Rainfall in
Snow Depth Not available.
UV Not available.
Pollen Not available.
Air Quality Not available.
Flu Activity Not available.
METAR LHBP 061030Z 22010KT 180V260 CAVOK 32/12 Q1017 NOSIG

More Conditions Fewer Conditions

10-Day Weather Forecast

×

Almanac

Astronomy

Jul. 06, 2015 Rise Set
Actual Time
Civil Twilight
Nautical Twilight
Astronomical Twilight
Moon
Length of Visible Light
Length of Day
Tomorrow will be .
, % of the Moon is Illuminated

Today's Extremes

Country Highs Country Lows

Community

WunderPhotos

Upload Photos

1,835,531 photos uploaded!

WunderBlogs® & News

Nearby

Air Quality

  Air Quality AQ Index Pollutant
Not available.

Snow Depth

Station Depth Elevation

Earthquake Activity

City Distance Mag. Time & Date
Minimum magnitude displayed is 2.5.

Coastal Water Temperatures

Place Temperature

Stations

Nearby Weather Stations

Station Location Temp. Windchill Dew Point Humidity Wind Precip. Elev Updated Type